Haase, Rick
United StatesManBorn 19452004 – 2021Runner id 104135
Events
120
119 race dates
Best pace
9.373
km/h · 2005
Best finish
12th
of 51 · 2017
Distance raced
7,977
km · splits not double-counted
Pace over time
km/h · higher is faster
Pace over time: 119 races and 1 split from 2004 to 2021, ranging from 1.52 to 11.40 kilometres per hour, where higher is faster. A second, age-graded series is drawn above it; the gap between the two is the age credit.
- Actual pace
- Age-graded pace
- Split of a race already plotted
Results
| Date | Event | Distance | Result | Pace km/h | Placing |
|---|---|---|---|---|---|
| 2004-11-13 | 50km | 5:57:03 h | 8.402 | 21/34 | |
| 2005-01-22 | Capitol Peak MegaFatAssUnited States | 34mi | 9:14:00 h | 5.926 | 36/36 |
| 2005-03-19 | Chuckanut 50KUnited States | 50km | 6:50:54 h | 7.301 | 171/210 |
| 2005-04-17 | 50mi | 8:35:07 h | 9.373 | 18/38 | |
| 2005-04-30 | 100km | 13:45:19 h | 7.270 | 162/223 | |
| 2005-05-14 | 50km | 7:14:19 h | 6.907 | 107/189 | |
| 2005-06-04 | 100mi | 25:59:48 h | 6.191 | 19/36 | |
| 2005-07-09 | 50km | 6:45:25 h | 7.400 | 100/126 | |
| 2005-07-30 | 50mi | 12:27:56 h | 6.455 | 104/115 | |
| 2005-09-19 | Cle Elum Ridge 50kUnited States | 50km | 7:21:59 h | 6.788 | 49/69 |
| 2005-10-01 | Baker Lake 50K Ultra Trail RunUnited States | 50km | 6:50:11 h | 7.314 | 70/101 |
| 2006-01-14 | Bridle Trails Winter Running FestivalUnited States | 50km | 7:51:30 h | 6.363 | 17/18 |
| 2006-02-25 | 50km | 7:03:31 h | 7.084 | 88/96 | |
| 2006-03-18 | Chuckanut 50KUnited States | 50km | 9:01:07 h | 5.544 | 238/242 |
| 2006-03-25 | 50km | 6:28:42 h | 7.718 | 38/48 | |
| 2006-09-09 | McKenzie River 50 km Trail RunUnited States | 50km | 6:59:57 h | 7.144 | 103/116 |
| 2006-10-07 | Baker Lake 50K Ultra Trail RunUnited States | 50km | 9:09:16 h | 5.462 | 110/113 |
| 2006-11-11 | Ron Herzog 50KUnited States | 50km | 7:07:33 h | 7.017 | 29/32 |
| 2007-02-03 | Pigtails Run 50KUnited States | 50km | 6:03:20 h | 8.257 | 37/44 |
| 2007-03-17 | Chuckanut 50KUnited States | 50km | 9:28:59 h | 5.273 | 258/260 |
| 2007-04-22 | 50km | 5:49:58 h | 8.572 | 49/63 | |
| 2007-05-19 | Watershed Preserve 12 Hr Trail RaceUnited States | 12h | 77.312 km | 6.443 | 25/56 |
| 2007-10-06 | Baker Lake 50K Ultra Trail RunUnited States | 50km | 8:24:10 h | 5.950 | 73/77 |
| 2007-11-03 | 50km | 6:27:19 h | 7.746 | 27/50 | |
| 2008-06-14 | Lake Youngs UltraUnited States | 28.8mi | 7:24:25 h | 6.258 | 90/95 |
| 2008-09-13 | Cle Elum Ridge 50kUnited States | 50km | 9:12:00 h | 5.435 | 78/80 |
| 2008-10-19 | 50km | 7:10:00 h | 6.977 | 17/19 | |
| 2008-10-20 | Baker Lake 50K Ultra Trail RunUnited States | 50km | 7:52:43 h | 6.346 | 72/86 |
| 2008-11-15 | 50km | 6:07:15 h | 8.169 | 24/35 | |
| 2009-04-19 | 50km | 6:07:47 h | 8.157 | 48/66 | |
| 2009-04-25 | 55km | 9:22:04 h | 5.871 | 40/43 | |
| 2009-05-09 | 50km | 7:39:47 h | 6.525 | 147/163 | |
| 2009-05-16 | Watershed Preserve 12 Hr Trail RaceUnited States | 12h | 51.901 km | 4.325 | 64/66 |
| 2009-05-24 | 50km | 7:12:18 h | 6.940 | 63/67 | |
| 2009-06-13 | Lake Youngs UltraUnited States | 28.8mi | 6:01:05 h | 7.702 | 50/58 |
| 2009-07-11 | 50km | 8:24:53 h | 5.942 | 32/36 | |
| 2009-09-12 | 50km | 7:14:34 h | 6.903 | 30/35 | |
| 2009-10-03 | Baker Lake 50K Ultra Trail RunUnited States | 50km | 8:56:00 h | 5.597 | 62/65 |
| 2009-11-07 | Ron Herzog 50KUnited States | 50km | 6:33:10 h | 7.630 | 28/31 |
| 2009-12-06 | 50km | 6:43:54 h | 7.428 | 171/226 | |
| 2009-12-19 | 50km | 7:08:06 h | 7.008 | 154/172 | |
| 2010-01-09 | Bridle Trails Winter Running FestivalUnited States | 50km | 6:59:44 h | 7.147 | 64/70 |
| 2010-01-16 | 34mi | 7:37:00 h | 7.184 | 37/38 | |
| 2010-01-23 | Pigtails Run 50KUnited States | 50km | 6:21:56 h | 7.855 | 69/80 |
| 2010-04-11 | 50km | 6:42:24 h | 7.455 | 58/64 | |
| 2010-06-12 | 28.8mi | 6:57:00 h | 6.669 | 58/61 | |
| 2010-08-07 | Grand Ridge 50 Km Trail RunUnited States | 50km | 8:48:03 h | 5.681 | 24/24 |
| 2010-09-05 | 50km | 7:45:30 h | 6.445 | 13/13 | |
| 2010-10-30 | 50km | 7:22:37 h | 6.778 | 49/61 | |
| 2011-03-11 | 50km | 9:06:00 h | 5.495 | 122/125 | |
| 2011-03-19 | 50km | 9:46:00 h | 5.119 | 291/298 | |
| 2011-05-14 | 12h | 60.551 km | 5.046 | 48/68 | |
| 2011-06-11 | 28.8mi | 6:21:34 h | 7.288 | 49/53 | |
| 2011-07-02 | Lord Hill Summer Trail RunUnited States | 50km | 8:09:04 h | 6.134 | 29/30 |
| 2011-08-20 | Summit Ridge 50 Km Trail RunUnited States | 50km | 8:36:11 h | 5.812 | 17/18 |
| 2011-09-03 | 50km | 8:01:39 h | 6.229 | 4/5 | |
| 2011-10-01 | 50km | 8:03:52 h | 6.200 | 106/122 | |
| 2011-10-15 | 50km | 7:05:55 h | 7.044 | 104/112 | |
| 2011-10-23 | Fort Steilacoom Trail Run 50 KmUnited States | 50km | 6:52:37 h | 7.271 | 29/36 |
| 2011-10-29 | 50km | 6:23:00 h | 7.833 | 25/46 | |
| 2011-11-19 | 50mi | 11:51:51 h | 6.782 | 771/864 | |
| 2011-12-10 | 50km | 7:53:36 h | 6.334 | 61/63 | |
| 2012-01-28 | Lake Youngs Nuts RunUnited States | 50km | 7:01:10 h | 7.123 | 55/57 |
| 2012-02-26 | Lord Hill Trail RunUnited States | 50km | 9:04:31 h | 5.509 | 55/55 |
| 2012-05-19 | 12h | 84.804 km | 7.067 | 23/60 | |
| 2012-06-09 | 28.8mi | 5:59:52 h | 7.728 | 36/43 | |
| 2012-07-07 | 50km | 9:04:18 h | 5.512 | 27/28 | |
| 2012-09-02 | Roots Rock 50K RunUnited States | 50km | 8:09:00 h | 6.135 | 13/13 |
| 2012-10-13 | 50km | 7:31:03 h | 6.651 | 94/97 | |
| 2012-10-27 | ORRC Autumn Leaves 50 km RunUnited States | 50km | 6:30:12 h | 7.688 | 33/48 |
| 2013-02-16 | Woolley Trail Runs 50kUnited States | 50km | 7:30:07 h | 6.665 | 15/17 |
| 2013-03-16 | 24h | 64.373 km | 2.682 | 31/51 | |
| 2013-03-23 | 12h | 72.098 km | 6.008 | 27/74 | |
| 2013-05-18 | 12h | 74.995 km | 6.250 | 25/64 | |
| 2013-06-01 | 38mi | 11:17:38 h | 5.415 | 46/64 | |
| 2013-06-08 | 28.8mi | 6:39:00 h | 6.970 | 21/29 | |
| 2013-06-23 | Rattlesnake Ridge 50k RunUnited States | 50km | 9:14:52 h | 5.407 | 32/33 |
| 2013-08-11 | Transcendence 12 Hour Ultra RunUnited States | 12h | 78.479 km | 6.540 | 26/60 |
| 2013-09-07 | Volcanic 50United States | 50km | 12:18:22 h | 4.063 | 117/118 |
| 2013-10-05 | 50km | 9:07:56 h | 5.475 | 181/188 | |
| 2013-10-12 | Defiance 50kUnited States | 50km | 7:40:02 h | 6.521 | 102/105 |
| 2013-10-26 | ORRC Autumn Leaves 50 km RunUnited States | 50km | 6:43:44 h | 7.431 | 44/68 |
| 2014-03-22 | 12h | 56.648 km | 4.721 | 47/98 | |
| 2014-08-10 | 12h | 53.954 km | 4.496 | 22/30 | |
| 2015-03-14 | 12h | 51.499 km | 4.292 | 62/75 | |
| 2015-04-26 | 50km | 8:13:52 h | 6.075 | 83/87 | |
| 2015-05-16 | 12h | 68.646 km | 5.721 | 10/23 | |
| 2015-10-24 | 50km | 8:16:27 h | 6.043 | 57/60 | |
| 2016-02-07 | 50km | 8:42:00 h | 5.747 | 21/22 | |
| 2016-10-22 | 50km | 7:42:19 h | 6.489 | 64/72 | |
| 2017-01-14 | 50km | 7:56:36 h | 6.295 | 58/59 | |
| 2017-03-17 | 24h | 117.482 km | 4.895 | 12/51 | |
| 2017-03-25 | 12h | 56.648 km | 4.721 | 16/41 | |
| 2017-04-23 | 50km | 8:42:00 h | 5.747 | 58/59 | |
| 2017-10-07 | 50km | 9:55:30 h | 5.038 | 152/159 | |
| 2017-12-30 | 72h | 219.635 km | 3.050 | 13/44 | |
| 2018-03-17 | 24h | 93.341 km | 3.889 | 23/49 | |
| 2018-03-24 | 12h | 61.798 km | 5.150 | 11/42 | |
| 2018-03-30 | 50mi | 18:18:46 h | 4.394 | 104/108 | |
| 2018-05-06 | Lake Hills 50km RaceUnited States | 50km | 8:17:12 h | 6.034 | 5/5 |
| 2018-05-19 | 13h | 64.438 km | 4.957 | 16/20 | |
| 2018-05-26 | 100km | 21:30:36 h | 4.649 | 21/26 | |
| 2018-08-30 | 86h | 185.074 km | 2.152 | 52/163 | |
| 2018-10-27 | 50km | 8:23:07 h | 5.963 | 47/52 | |
| 2018-11-10 | 50mi | 14:45:44 h | 5.451 | 372/421 | |
| 2018-12-28 | 6d | 332.830 km | 2.311 | 43/83 | |
| 2019-03-16 | 24h | 61.155 km | 2.548 | 56/78 | |
| 2019-03-23 | Dizzy Daze 12 hoursUnited States | 12h | 56.648 km | 4.721 | 37/59 |
| 2019-05-04 | 12h | 50.292 km | 4.191 | 12/13 | |
| 2019-05-18 | 13h | 57.002 km | 4.385 | 12/17 | |
| 2019-05-25 | 100km | 23:05:09 h | 4.332 | 36/38 | |
| 2019-06-22 | Elijah Bristow 24 Hour RunUnited States | 24h | 64.454 km | 2.686 | 45/49 |
| 2019-09-21 | 32h | 54.395 km | 1.700 | 22/23 | |
| 2019-10-05 | The Hennepin Hundred - 50 Mile RunUnited States | 50mi | 15:58:42 h | 5.036 | 127/128 |
| 2019-12-28 | 10d | 483.944 km | 2.016 | 40/55 | |
| 2019-12-28 | Across the Years, 10 days - 6d SplitUnited StatesIAU BronzeSplit of the race above; not counted again in the distance total*Shoreline, WA | 6d | 286.657 km | 1.991 | 40/51 |
| 2021-08-14 | 32h | 54.395 km | 1.700 | 22/23 | |
| 2021-09-05 | 13h | 52.046 km | 4.004 | 15/15 | |
| 2021-10-30 | 50km | 10:31:00 h | 4.754 | 44/45 | |
| 2021-12-28 | 6d | 219.205 km | 1.522 | 28/40 |